Terminal Aerodrome Forecast
Issued by NWS Billings, MT

Home | Current Version | Previous Version | Text Only | Print | Product List | Glossary On
Versions: 1 2 3 4 5 6 7 8 9 10 11 12 13 14 15 16 17 18 19 20 21 22 23 24
000
FTUS45 KBYZ 021129
TAFMLS
TAF
KMLS 021129Z 0212/0312 15008KT P6SM SKC
     FM022000 31020G30KT P6SM VCSH SCT040 BKN120
     FM030200 35020G35KT 3SM -SN BLSN SCT008 BKN020 OVC040
     FM030800 35020KT 5SM -SN BLSN BKN020 OVC040=

USA.gov is the U.S. government's official web portal to all federal, state and local government web resources and services.